sensor_id;sensor_type;location;lat;lon;timestamp;temperature;humidity
851;DHT22;412;51.400;7.480;2022-08-30T00:01:09;20.10;92.10
851;DHT22;412;51.400;7.480;2022-08-30T00:03:38;20.20;92.40
851;DHT22;412;51.400;7.480;2022-08-30T00:06:08;20.20;92.50
851;DHT22;412;51.400;7.480;2022-08-30T00:08:35;20.10;92.30
851;DHT22;412;51.400;7.480;2022-08-30T00:11:03;20.20;92.50
851;DHT22;412;51.400;7.480;2022-08-30T00:13:30;20.20;92.70
851;DHT22;412;51.400;7.480;2022-08-30T00:15:56;20.20;92.90
851;DHT22;412;51.400;7.480;2022-08-30T00:18:23;20.30;93.40
851;DHT22;412;51.400;7.480;2022-08-30T00:20:49;20.30;94.00
851;DHT22;412;51.400;7.480;2022-08-30T00:23:16;20.30;94.60
851;DHT22;412;51.400;7.480;2022-08-30T00:25:43;20.30;93.80
851;DHT22;412;51.400;7.480;2022-08-30T00:28:10;20.30;93.70
851;DHT22;412;51.400;7.480;2022-08-30T00:30:37;20.30;93.40
851;DHT22;412;51.400;7.480;2022-08-30T00:33:03;20.30;93.50
851;DHT22;412;51.400;7.480;2022-08-30T00:35:29;20.40;94.00
851;DHT22;412;51.400;7.480;2022-08-30T00:37:55;20.40;94.00
851;DHT22;412;51.400;7.480;2022-08-30T00:40:21;20.40;94.00
851;DHT22;412;51.400;7.480;2022-08-30T00:42:48;20.40;93.70
851;DHT22;412;51.400;7.480;2022-08-30T00:45:23;20.40;93.60
851;DHT22;412;51.400;7.480;2022-08-30T00:47:50;20.30;93.60
851;DHT22;412;51.400;7.480;2022-08-30T00:50:18;20.30;93.60
851;DHT22;412;51.400;7.480;2022-08-30T00:52:47;20.20;93.70
851;DHT22;412;51.400;7.480;2022-08-30T00:55:15;20.00;94.00
851;DHT22;412;51.400;7.480;2022-08-30T00:57:43;19.90;94.10
851;DHT22;412;51.400;7.480;2022-08-30T01:00:11;19.80;94.20
851;DHT22;412;51.400;7.480;2022-08-30T01:02:38;19.80;94.60
851;DHT22;412;51.400;7.480;2022-08-30T01:05:05;19.80;94.70
851;DHT22;412;51.400;7.480;2022-08-30T01:07:33;19.80;94.80
851;DHT22;412;51.400;7.480;2022-08-30T01:10:00;19.90;94.90
851;DHT22;412;51.400;7.480;2022-08-30T01:12:27;19.90;94.60
851;DHT22;412;51.400;7.480;2022-08-30T01:14:54;20.00;94.60
851;DHT22;412;51.400;7.480;2022-08-30T01:17:20;20.00;94.70
851;DHT22;412;51.400;7.480;2022-08-30T01:19:52;20.10;94.70
851;DHT22;412;51.400;7.480;2022-08-30T01:25:17;20.10;94.40
851;DHT22;412;51.400;7.480;2022-08-30T01:27:49;20.10;94.70
851;DHT22;412;51.400;7.480;2022-08-30T01:30:15;20.10;94.40
851;DHT22;412;51.400;7.480;2022-08-30T01:32:44;20.10;94.50
851;DHT22;412;51.400;7.480;2022-08-30T01:35:16;20.10;94.40
851;DHT22;412;51.400;7.480;2022-08-30T01:37:43;20.10;94.60
851;DHT22;412;51.400;7.480;2022-08-30T01:40:12;20.00;94.80
851;DHT22;412;51.400;7.480;2022-08-30T01:42:38;20.00;94.80
851;DHT22;412;51.400;7.480;2022-08-30T01:45:05;20.00;94.80
851;DHT22;412;51.400;7.480;2022-08-30T01:47:31;20.00;94.70
851;DHT22;412;51.400;7.480;2022-08-30T01:49:57;20.00;94.90
851;DHT22;412;51.400;7.480;2022-08-30T01:52:23;20.00;95.10
851;DHT22;412;51.400;7.480;2022-08-30T01:54:50;20.00;95.00
851;DHT22;412;51.400;7.480;2022-08-30T01:57:20;19.80;95.50
851;DHT22;412;51.400;7.480;2022-08-30T01:59:47;19.80;95.70
851;DHT22;412;51.400;7.480;2022-08-30T02:02:17;19.80;96.10
851;DHT22;412;51.400;7.480;2022-08-30T02:04:44;19.90;96.40
851;DHT22;412;51.400;7.480;2022-08-30T02:07:10;19.90;96.40
851;DHT22;412;51.400;7.480;2022-08-30T02:09:36;19.90;96.30
851;DHT22;412;51.400;7.480;2022-08-30T02:12:03;19.90;96.30
851;DHT22;412;51.400;7.480;2022-08-30T02:14:32;19.90;96.60
851;DHT22;412;51.400;7.480;2022-08-30T02:16:58;19.90;96.40
851;DHT22;412;51.400;7.480;2022-08-30T02:19:24;19.80;96.40
851;DHT22;412;51.400;7.480;2022-08-30T02:21:50;19.80;96.50
851;DHT22;412;51.400;7.480;2022-08-30T02:24:16;19.70;96.70
851;DHT22;412;51.400;7.480;2022-08-30T02:26:41;19.70;97.00
851;DHT22;412;51.400;7.480;2022-08-30T02:29:07;19.70;97.10
851;DHT22;412;51.400;7.480;2022-08-30T02:31:33;19.80;97.10
851;DHT22;412;51.400;7.480;2022-08-30T02:33:59;19.80;97.00
851;DHT22;412;51.400;7.480;2022-08-30T02:36:25;19.80;97.20
851;DHT22;412;51.400;7.480;2022-08-30T02:38:51;19.80;97.10
851;DHT22;412;51.400;7.480;2022-08-30T02:41:18;19.70;97.10
851;DHT22;412;51.400;7.480;2022-08-30T02:43:44;19.60;97.30
851;DHT22;412;51.400;7.480;2022-08-30T02:46:10;19.50;97.70
851;DHT22;412;51.400;7.480;2022-08-30T02:48:36;19.50;97.80
851;DHT22;412;51.400;7.480;2022-08-30T02:51:07;19.50;98.40
851;DHT22;412;51.400;7.480;2022-08-30T02:53:33;19.60;98.40
851;DHT22;412;51.400;7.480;2022-08-30T02:55:59;19.60;98.40
851;DHT22;412;51.400;7.480;2022-08-30T02:58:25;19.60;98.10
851;DHT22;412;51.400;7.480;2022-08-30T03:00:50;19.50;98.10
851;DHT22;412;51.400;7.480;2022-08-30T03:03:16;19.50;98.40
851;DHT22;412;51.400;7.480;2022-08-30T03:05:42;19.50;98.30
851;DHT22;412;51.400;7.480;2022-08-30T03:08:08;19.40;98.50
851;DHT22;412;51.400;7.480;2022-08-30T03:10:35;19.50;99.40
851;DHT22;412;51.400;7.480;2022-08-30T03:13:01;19.60;99.00
851;DHT22;412;51.400;7.480;2022-08-30T03:15:27;19.60;98.80
851;DHT22;412;51.400;7.480;2022-08-30T03:17:54;19.70;98.50
851;DHT22;412;51.400;7.480;2022-08-30T03:20:21;19.50;98.60
851;DHT22;412;51.400;7.480;2022-08-30T03:22:47;19.60;98.80
851;DHT22;412;51.400;7.480;2022-08-30T03:25:13;19.60;98.60
851;DHT22;412;51.400;7.480;2022-08-30T03:27:39;19.60;98.50
851;DHT22;412;51.400;7.480;2022-08-30T03:30:06;19.50;98.50
851;DHT22;412;51.400;7.480;2022-08-30T03:32:32;19.60;98.80
851;DHT22;412;51.400;7.480;2022-08-30T03:34:58;19.60;98.60
851;DHT22;412;51.400;7.480;2022-08-30T03:37:24;19.70;98.60
851;DHT22;412;51.400;7.480;2022-08-30T03:39:52;19.60;98.50
851;DHT22;412;51.400;7.480;2022-08-30T03:42:18;19.70;98.60
851;DHT22;412;51.400;7.480;2022-08-30T03:44:44;19.70;98.30
851;DHT22;412;51.400;7.480;2022-08-30T03:47:10;19.60;98.60
851;DHT22;412;51.400;7.480;2022-08-30T03:49:36;19.60;98.60
851;DHT22;412;51.400;7.480;2022-08-30T03:52:02;19.60;98.40
851;DHT22;412;51.400;7.480;2022-08-30T03:54:28;19.70;98.40
851;DHT22;412;51.400;7.480;2022-08-30T03:56:54;19.70;98.40
851;DHT22;412;51.400;7.480;2022-08-30T03:59:20;19.70;98.20
851;DHT22;412;51.400;7.480;2022-08-30T04:01:46;19.70;98.20
851;DHT22;412;51.400;7.480;2022-08-30T04:04:13;19.60;98.30
851;DHT22;412;51.400;7.480;2022-08-30T04:06:39;19.40;98.70
851;DHT22;412;51.400;7.480;2022-08-30T04:09:05;19.30;99.30
851;DHT22;412;51.400;7.480;2022-08-30T04:11:31;19.30;99.50
851;DHT22;412;51.400;7.480;2022-08-30T04:13:57;19.30;99.40
851;DHT22;412;51.400;7.480;2022-08-30T04:16:23;19.30;99.30
851;DHT22;412;51.400;7.480;2022-08-30T04:18:49;19.20;99.40
851;DHT22;412;51.400;7.480;2022-08-30T04:21:15;19.10;99.60
851;DHT22;412;51.400;7.480;2022-08-30T04:23:42;19.20;99.90
851;DHT22;412;51.400;7.480;2022-08-30T04:26:08;19.20;99.80
851;DHT22;412;51.400;7.480;2022-08-30T04:28:34;19.20;99.50
851;DHT22;412;51.400;7.480;2022-08-30T04:31:09;19.20;99.50
851;DHT22;412;51.400;7.480;2022-08-30T04:33:36;19.20;99.60
851;DHT22;412;51.400;7.480;2022-08-30T04:36:04;19.10;99.80
851;DHT22;412;51.400;7.480;2022-08-30T04:38:31;19.20;99.90
851;DHT22;412;51.400;7.480;2022-08-30T04:40:57;19.10;99.80
851;DHT22;412;51.400;7.480;2022-08-30T04:43:23;19.10;99.90
851;DHT22;412;51.400;7.480;2022-08-30T04:45:52;19.00;99.90
851;DHT22;412;51.400;7.480;2022-08-30T04:48:18;18.90;99.90
851;DHT22;412;51.400;7.480;2022-08-30T04:50:45;19.00;99.90
851;DHT22;412;51.400;7.480;2022-08-30T04:53:14;19.00;99.90
851;DHT22;412;51.400;7.480;2022-08-30T04:55:41;19.10;99.90
851;DHT22;412;51.400;7.480;2022-08-30T04:58:08;19.00;99.90
851;DHT22;412;51.400;7.480;2022-08-30T05:00:35;19.00;99.90
851;DHT22;412;51.400;7.480;2022-08-30T05:03:02;19.00;99.90
851;DHT22;412;51.400;7.480;2022-08-30T05:05:29;18.90;99.90
851;DHT22;412;51.400;7.480;2022-08-30T05:08:09;18.80;99.90
851;DHT22;412;51.400;7.480;2022-08-30T05:10:41;18.80;99.90
851;DHT22;412;51.400;7.480;2022-08-30T05:13:08;18.90;99.90
851;DHT22;412;51.400;7.480;2022-08-30T05:15:34;18.90;99.90
851;DHT22;412;51.400;7.480;2022-08-30T05:18:01;19.20;99.90
851;DHT22;412;51.400;7.480;2022-08-30T05:20:27;19.50;99.90
851;DHT22;412;51.400;7.480;2022-08-30T05:22:53;19.70;99.80
851;DHT22;412;51.400;7.480;2022-08-30T05:25:23;20.10;99.90
851;DHT22;412;51.400;7.480;2022-08-30T05:27:50;20.30;99.00
851;DHT22;412;51.400;7.480;2022-08-30T05:30:17;20.50;98.40
851;DHT22;412;51.400;7.480;2022-08-30T05:32:43;20.70;98.10
851;DHT22;412;51.400;7.480;2022-08-30T05:35:10;20.90;97.50
851;DHT22;412;51.400;7.480;2022-08-30T05:37:37;21.00;97.20
851;DHT22;412;51.400;7.480;2022-08-30T05:40:04;21.10;97.00
851;DHT22;412;51.400;7.480;2022-08-30T05:42:31;21.20;96.20
851;DHT22;412;51.400;7.480;2022-08-30T05:44:57;21.30;96.40
851;DHT22;412;51.400;7.480;2022-08-30T05:47:23;21.10;96.00
851;DHT22;412;51.400;7.480;2022-08-30T05:49:49;21.20;96.00
851;DHT22;412;51.400;7.480;2022-08-30T05:52:15;21.20;95.80
851;DHT22;412;51.400;7.480;2022-08-30T05:54:51;21.10;95.90
851;DHT22;412;51.400;7.480;2022-08-30T05:57:18;21.00;96.00
851;DHT22;412;51.400;7.480;2022-08-30T05:59:45;20.90;96.10
851;DHT22;412;51.400;7.480;2022-08-30T06:02:10;21.00;96.70
851;DHT22;412;51.400;7.480;2022-08-30T06:04:36;21.10;96.50
851;DHT22;412;51.400;7.480;2022-08-30T06:07:03;21.10;95.60
851;DHT22;412;51.400;7.480;2022-08-30T06:09:29;21.20;96.60
851;DHT22;412;51.400;7.480;2022-08-30T06:11:56;21.30;96.00
851;DHT22;412;51.400;7.480;2022-08-30T06:14:22;21.40;95.60
851;DHT22;412;51.400;7.480;2022-08-30T06:16:49;21.30;95.40
851;DHT22;412;51.400;7.480;2022-08-30T06:19:16;21.20;94.90
851;DHT22;412;51.400;7.480;2022-08-30T06:21:42;21.10;95.00
851;DHT22;412;51.400;7.480;2022-08-30T06:24:09;20.90;95.20
851;DHT22;412;51.400;7.480;2022-08-30T06:26:41;20.60;95.70
851;DHT22;412;51.400;7.480;2022-08-30T06:29:09;20.40;96.50
851;DHT22;412;51.400;7.480;2022-08-30T06:31:36;20.30;96.70
851;DHT22;412;51.400;7.480;2022-08-30T06:34:03;20.20;97.00
851;DHT22;412;51.400;7.480;2022-08-30T06:36:29;20.10;97.30
851;DHT22;412;51.400;7.480;2022-08-30T06:38:56;20.00;97.60
851;DHT22;412;51.400;7.480;2022-08-30T06:41:25;19.80;97.90
851;DHT22;412;51.400;7.480;2022-08-30T06:43:52;19.70;98.20
851;DHT22;412;51.400;7.480;2022-08-30T06:46:23;19.70;98.60
851;DHT22;412;51.400;7.480;2022-08-30T06:48:50;19.70;98.80
851;DHT22;412;51.400;7.480;2022-08-30T06:51:21;19.70;99.00
851;DHT22;412;51.400;7.480;2022-08-30T06:53:47;19.70;99.10
851;DHT22;412;51.400;7.480;2022-08-30T06:56:13;19.60;99.20
851;DHT22;412;51.400;7.480;2022-08-30T06:58:39;19.60;99.30
851;DHT22;412;51.400;7.480;2022-08-30T07:01:06;19.60;99.40
851;DHT22;412;51.400;7.480;2022-08-30T07:03:33;19.50;99.50
851;DHT22;412;51.400;7.480;2022-08-30T07:05:58;19.60;99.80
851;DHT22;412;51.400;7.480;2022-08-30T07:08:24;19.20;99.90
851;DHT22;412;51.400;7.480;2022-08-30T07:10:51;19.20;99.90
851;DHT22;412;51.400;7.480;2022-08-30T07:13:19;19.20;99.90
851;DHT22;412;51.400;7.480;2022-08-30T07:15:46;19.20;99.90
851;DHT22;412;51.400;7.480;2022-08-30T07:18:13;19.40;99.90
851;DHT22;412;51.400;7.480;2022-08-30T07:21:04;19.50;99.90
851;DHT22;412;51.400;7.480;2022-08-30T07:23:30;19.60;99.90
851;DHT22;412;51.400;7.480;2022-08-30T07:25:55;19.60;99.90
851;DHT22;412;51.400;7.480;2022-08-30T07:28:21;19.50;99.90
851;DHT22;412;51.400;7.480;2022-08-30T07:30:47;19.60;99.90
851;DHT22;412;51.400;7.480;2022-08-30T07:33:13;19.60;99.90
851;DHT22;412;51.400;7.480;2022-08-30T07:35:38;19.80;99.90
851;DHT22;412;51.400;7.480;2022-08-30T07:38:04;19.90;99.90
851;DHT22;412;51.400;7.480;2022-08-30T07:40:30;20.00;99.90
851;DHT22;412;51.400;7.480;2022-08-30T07:42:55;20.10;99.90
851;DHT22;412;51.400;7.480;2022-08-30T07:45:21;20.10;99.90
851;DHT22;412;51.400;7.480;2022-08-30T07:47:47;20.10;99.70
851;DHT22;412;51.400;7.480;2022-08-30T07:50:13;20.10;99.90
851;DHT22;412;51.400;7.480;2022-08-30T07:52:39;20.10;99.90
851;DHT22;412;51.400;7.480;2022-08-30T07:55:05;20.20;99.90
851;DHT22;412;51.400;7.480;2022-08-30T07:57:31;20.40;99.90
851;DHT22;412;51.400;7.480;2022-08-30T08:00:00;20.40;99.80
851;DHT22;412;51.400;7.480;2022-08-30T08:02:26;20.50;99.90
851;DHT22;412;51.400;7.480;2022-08-30T08:04:52;20.50;99.90
851;DHT22;412;51.400;7.480;2022-08-30T08:07:18;20.70;99.90
851;DHT22;412;51.400;7.480;2022-08-30T08:09:43;20.80;99.50
851;DHT22;412;51.400;7.480;2022-08-30T08:12:09;21.00;99.40
851;DHT22;412;51.400;7.480;2022-08-30T08:14:35;21.00;99.10
851;DHT22;412;51.400;7.480;2022-08-30T08:17:01;21.10;98.60
851;DHT22;412;51.400;7.480;2022-08-30T08:19:27;21.20;98.40
851;DHT22;412;51.400;7.480;2022-08-30T08:21:53;21.30;98.70
851;DHT22;412;51.400;7.480;2022-08-30T08:24:22;21.40;98.20
851;DHT22;412;51.400;7.480;2022-08-30T08:26:47;21.40;97.90
851;DHT22;412;51.400;7.480;2022-08-30T08:29:13;21.50;98.20
851;DHT22;412;51.400;7.480;2022-08-30T08:31:39;21.50;98.50
851;DHT22;412;51.400;7.480;2022-08-30T08:34:06;21.60;98.10
851;DHT22;412;51.400;7.480;2022-08-30T08:36:33;21.70;98.00
851;DHT22;412;51.400;7.480;2022-08-30T08:39:00;21.70;97.60
851;DHT22;412;51.400;7.480;2022-08-30T08:44:08;21.80;97.60
851;DHT22;412;51.400;7.480;2022-08-30T08:46:46;21.90;97.60
851;DHT22;412;51.400;7.480;2022-08-30T08:49:14;21.90;97.50
851;DHT22;412;51.400;7.480;2022-08-30T08:51:40;22.00;97.40
851;DHT22;412;51.400;7.480;2022-08-30T08:54:40;22.00;97.40
851;DHT22;412;51.400;7.480;2022-08-30T08:57:09;22.10;96.80
851;DHT22;412;51.400;7.480;2022-08-30T08:59:36;22.10;96.50
851;DHT22;412;51.400;7.480;2022-08-30T09:02:23;22.10;96.50
851;DHT22;412;51.400;7.480;2022-08-30T09:04:50;22.20;96.80
851;DHT22;412;51.400;7.480;2022-08-30T09:07:25;22.30;97.20
851;DHT22;412;51.400;7.480;2022-08-30T09:09:52;22.40;96.80
851;DHT22;412;51.400;7.480;2022-08-30T09:12:18;22.50;96.50
851;DHT22;412;51.400;7.480;2022-08-30T09:14:55;22.60;96.10
851;DHT22;412;51.400;7.480;2022-08-30T09:17:23;22.70;96.20
851;DHT22;412;51.400;7.480;2022-08-30T09:25:17;23.00;95.00
851;DHT22;412;51.400;7.480;2022-08-30T09:27:46;23.00;94.90
851;DHT22;412;51.400;7.480;2022-08-30T09:30:56;23.00;94.70
851;DHT22;412;51.400;7.480;2022-08-30T09:33:19;23.00;94.80
851;DHT22;412;51.400;7.480;2022-08-30T09:35:48;23.10;94.80
851;DHT22;412;51.400;7.480;2022-08-30T09:38:19;23.20;95.00
851;DHT22;412;51.400;7.480;2022-08-30T09:40:54;23.30;95.40
851;DHT22;412;51.400;7.480;2022-08-30T09:43:27;23.50;94.60
851;DHT22;412;51.400;7.480;2022-08-30T10:15:40;25.70;89.40
851;DHT22;412;51.400;7.480;2022-08-30T10:18:36;25.90;88.50
851;DHT22;412;51.400;7.480;2022-08-30T10:21:24;26.00;86.30
851;DHT22;412;51.400;7.480;2022-08-30T10:24:08;26.00;84.90
851;DHT22;412;51.400;7.480;2022-08-30T10:26:56;26.10;85.40
851;DHT22;412;51.400;7.480;2022-08-30T10:29:27;26.20;84.00
851;DHT22;412;51.400;7.480;2022-08-30T10:32:03;26.20;84.00
851;DHT22;412;51.400;7.480;2022-08-30T10:34:36;26.20;84.80
851;DHT22;412;51.400;7.480;2022-08-30T10:37:15;26.30;83.20
851;DHT22;412;51.400;7.480;2022-08-30T10:39:50;26.40;83.20
851;DHT22;412;51.400;7.480;2022-08-30T10:42:24;26.50;82.90
851;DHT22;412;51.400;7.480;2022-08-30T10:45:12;26.70;82.50
851;DHT22;412;51.400;7.480;2022-08-30T10:48:00;26.70;79.60
851;DHT22;412;51.400;7.480;2022-08-30T10:50:33;26.70;78.60
851;DHT22;412;51.400;7.480;2022-08-30T10:55:30;26.50;78.90
851;DHT22;412;51.400;7.480;2022-08-30T10:57:59;26.60;79.20
851;DHT22;412;51.400;7.480;2022-08-30T11:00:29;26.70;78.60
851;DHT22;412;51.400;7.480;2022-08-30T11:03:12;26.80;77.90
851;DHT22;412;51.400;7.480;2022-08-30T11:14:14;27.20;76.70
851;DHT22;412;51.400;7.480;2022-08-30T11:16:44;27.30;76.40
851;DHT22;412;51.400;7.480;2022-08-30T11:19:27;27.30;75.40
851;DHT22;412;51.400;7.480;2022-08-30T11:35:47;27.20;74.20
851;DHT22;412;51.400;7.480;2022-08-30T11:57:11;27.00;73.40
851;DHT22;412;51.400;7.480;2022-08-30T12:00:03;26.90;73.50
851;DHT22;412;51.400;7.480;2022-08-30T12:03:33;27.00;73.00
851;DHT22;412;51.400;7.480;2022-08-30T12:08:37;27.30;71.00
851;DHT22;412;51.400;7.480;2022-08-30T12:16:33;27.70;69.90
851;DHT22;412;51.400;7.480;2022-08-30T12:19:14;27.70;68.40
851;DHT22;412;51.400;7.480;2022-08-30T12:21:40;27.70;67.50
851;DHT22;412;51.400;7.480;2022-08-30T12:24:14;27.70;68.20
851;DHT22;412;51.400;7.480;2022-08-30T12:26:46;27.70;68.10
851;DHT22;412;51.400;7.480;2022-08-30T12:29:27;27.70;68.00
851;DHT22;412;51.400;7.480;2022-08-30T12:37:20;27.60;67.50
851;DHT22;412;51.400;7.480;2022-08-30T12:39:48;27.60;68.60
851;DHT22;412;51.400;7.480;2022-08-30T12:42:29;27.60;67.40
851;DHT22;412;51.400;7.480;2022-08-30T12:44:57;27.50;68.10
851;DHT22;412;51.400;7.480;2022-08-30T12:47:39;27.50;67.30
851;DHT22;412;51.400;7.480;2022-08-30T12:50:07;27.60;68.20
851;DHT22;412;51.400;7.480;2022-08-30T12:52:39;27.60;68.90
851;DHT22;412;51.400;7.480;2022-08-30T12:58:02;27.70;68.40
851;DHT22;412;51.400;7.480;2022-08-30T13:00:33;27.70;67.80
851;DHT22;412;51.400;7.480;2022-08-30T13:03:02;27.60;65.00
851;DHT22;412;51.400;7.480;2022-08-30T13:08:21;27.60;66.00
851;DHT22;412;51.400;7.480;2022-08-30T13:11:05;27.50;66.30
851;DHT22;412;51.400;7.480;2022-08-30T13:13:35;27.50;66.30
851;DHT22;412;51.400;7.480;2022-08-30T13:16:26;27.40;65.50
851;DHT22;412;51.400;7.480;2022-08-30T13:19:40;27.50;66.40
851;DHT22;412;51.400;7.480;2022-08-30T13:24:52;27.60;66.30
851;DHT22;412;51.400;7.480;2022-08-30T13:27:18;27.60;65.00
851;DHT22;412;51.400;7.480;2022-08-30T13:29:45;27.60;65.60
851;DHT22;412;51.400;7.480;2022-08-30T13:32:12;27.60;64.00
851;DHT22;412;51.400;7.480;2022-08-30T13:34:39;27.40;64.40
851;DHT22;412;51.400;7.480;2022-08-30T13:37:05;27.50;64.70
851;DHT22;412;51.400;7.480;2022-08-30T13:39:32;27.40;63.00
851;DHT22;412;51.400;7.480;2022-08-30T13:41:58;27.40;65.20
851;DHT22;412;51.400;7.480;2022-08-30T13:44:24;27.50;65.80
851;DHT22;412;51.400;7.480;2022-08-30T13:46:52;27.50;64.00
851;DHT22;412;51.400;7.480;2022-08-30T13:49:24;27.50;66.00
851;DHT22;412;51.400;7.480;2022-08-30T13:51:50;27.50;63.80
851;DHT22;412;51.400;7.480;2022-08-30T13:54:19;27.50;62.70
851;DHT22;412;51.400;7.480;2022-08-30T13:56:48;27.50;63.00
851;DHT22;412;51.400;7.480;2022-08-30T13:59:13;27.50;64.70
851;DHT22;412;51.400;7.480;2022-08-30T14:01:39;27.60;66.50
851;DHT22;412;51.400;7.480;2022-08-30T14:04:05;27.70;65.40
851;DHT22;412;51.400;7.480;2022-08-30T14:06:30;27.70;64.60
851;DHT22;412;51.400;7.480;2022-08-30T14:08:56;27.80;62.50
851;DHT22;412;51.400;7.480;2022-08-30T14:11:22;27.80;62.20
851;DHT22;412;51.400;7.480;2022-08-30T14:13:48;27.50;59.50
851;DHT22;412;51.400;7.480;2022-08-30T14:16:14;27.20;60.00
851;DHT22;412;51.400;7.480;2022-08-30T14:18:40;26.90;61.40
851;DHT22;412;51.400;7.480;2022-08-30T14:21:06;26.70;61.60
851;DHT22;412;51.400;7.480;2022-08-30T14:23:31;26.70;64.40
851;DHT22;412;51.400;7.480;2022-08-30T14:25:57;26.80;62.80
851;DHT22;412;51.400;7.480;2022-08-30T14:28:25;26.90;62.00
851;DHT22;412;51.400;7.480;2022-08-30T14:30:53;27.00;61.20
851;DHT22;412;51.400;7.480;2022-08-30T14:33:18;27.10;62.40
851;DHT22;412;51.400;7.480;2022-08-30T14:35:44;27.20;63.70
851;DHT22;412;51.400;7.480;2022-08-30T14:38:10;27.40;63.50
851;DHT22;412;51.400;7.480;2022-08-30T14:40:36;27.40;62.70
851;DHT22;412;51.400;7.480;2022-08-30T14:43:02;27.60;63.10
851;DHT22;412;51.400;7.480;2022-08-30T14:45:27;27.60;62.00
851;DHT22;412;51.400;7.480;2022-08-30T14:47:55;27.70;60.80
851;DHT22;412;51.400;7.480;2022-08-30T14:50:22;27.70;60.50
851;DHT22;412;51.400;7.480;2022-08-30T14:52:48;27.80;61.40
851;DHT22;412;51.400;7.480;2022-08-30T14:55:16;27.80;60.60
851;DHT22;412;51.400;7.480;2022-08-30T14:57:42;27.80;60.70
851;DHT22;412;51.400;7.480;2022-08-30T15:00:10;27.80;61.40
851;DHT22;412;51.400;7.480;2022-08-30T15:02:36;27.80;61.80
851;DHT22;412;51.400;7.480;2022-08-30T15:05:02;27.80;60.20
851;DHT22;412;51.400;7.480;2022-08-30T15:07:28;27.60;60.00
851;DHT22;412;51.400;7.480;2022-08-30T15:09:54;27.60;60.80
851;DHT22;412;51.400;7.480;2022-08-30T15:12:19;27.50;61.50
851;DHT22;412;51.400;7.480;2022-08-30T15:14:45;27.40;60.60
851;DHT22;412;51.400;7.480;2022-08-30T15:17:11;27.50;62.10
851;DHT22;412;51.400;7.480;2022-08-30T15:19:37;27.50;62.40
851;DHT22;412;51.400;7.480;2022-08-30T15:22:05;27.50;63.10
851;DHT22;412;51.400;7.480;2022-08-30T15:24:31;27.40;62.40
851;DHT22;412;51.400;7.480;2022-08-30T15:26:58;27.30;64.10
851;DHT22;412;51.400;7.480;2022-08-30T15:29:24;27.20;63.80
851;DHT22;412;51.400;7.480;2022-08-30T15:31:50;27.20;62.80
851;DHT22;412;51.400;7.480;2022-08-30T15:34:19;27.10;63.40
851;DHT22;412;51.400;7.480;2022-08-30T15:36:46;27.10;64.60
851;DHT22;412;51.400;7.480;2022-08-30T15:39:13;27.10;63.70
851;DHT22;412;51.400;7.480;2022-08-30T15:41:40;27.10;63.90
851;DHT22;412;51.400;7.480;2022-08-30T15:44:07;27.10;63.10
851;DHT22;412;51.400;7.480;2022-08-30T15:46:38;26.90;61.20
851;DHT22;412;51.400;7.480;2022-08-30T15:49:07;26.90;65.10
851;DHT22;412;51.400;7.480;2022-08-30T15:51:34;26.80;62.80
851;DHT22;412;51.400;7.480;2022-08-30T15:54:01;26.80;63.30
851;DHT22;412;51.400;7.480;2022-08-30T15:56:28;26.70;66.10
851;DHT22;412;51.400;7.480;2022-08-30T15:58:54;26.70;65.50
851;DHT22;412;51.400;7.480;2022-08-30T16:01:20;26.60;66.90
851;DHT22;412;51.400;7.480;2022-08-30T16:03:46;26.20;71.00
851;DHT22;412;51.400;7.480;2022-08-30T16:06:14;26.10;68.60
851;DHT22;412;51.400;7.480;2022-08-30T16:08:41;26.00;68.00
851;DHT22;412;51.400;7.480;2022-08-30T16:11:08;26.00;66.40
851;DHT22;412;51.400;7.480;2022-08-30T16:13:34;26.00;66.60
851;DHT22;412;51.400;7.480;2022-08-30T16:16:05;26.00;66.30
851;DHT22;412;51.400;7.480;2022-08-30T16:18:32;26.00;66.00
851;DHT22;412;51.400;7.480;2022-08-30T16:21:06;26.00;65.60
851;DHT22;412;51.400;7.480;2022-08-30T16:23:33;26.00;65.00
851;DHT22;412;51.400;7.480;2022-08-30T16:25:59;26.00;65.50
851;DHT22;412;51.400;7.480;2022-08-30T16:28:25;26.00;66.50
851;DHT22;412;51.400;7.480;2022-08-30T16:30:52;26.00;65.50
851;DHT22;412;51.400;7.480;2022-08-30T16:33:18;26.00;66.10
851;DHT22;412;51.400;7.480;2022-08-30T16:35:44;25.90;66.00
851;DHT22;412;51.400;7.480;2022-08-30T16:38:09;25.90;66.00
851;DHT22;412;51.400;7.480;2022-08-30T16:40:35;25.80;65.90
851;DHT22;412;51.400;7.480;2022-08-30T16:43:02;25.80;65.90
851;DHT22;412;51.400;7.480;2022-08-30T16:45:28;25.80;65.80
851;DHT22;412;51.400;7.480;2022-08-30T16:47:54;25.80;66.90
851;DHT22;412;51.400;7.480;2022-08-30T16:50:19;25.60;74.00
851;DHT22;412;51.400;7.480;2022-08-30T16:52:48;25.10;73.90
851;DHT22;412;51.400;7.480;2022-08-30T16:55:15;25.00;74.30
851;DHT22;412;51.400;7.480;2022-08-30T16:57:41;25.00;74.00
851;DHT22;412;51.400;7.480;2022-08-30T17:00:08;25.00;73.00
851;DHT22;412;51.400;7.480;2022-08-30T17:02:35;25.00;71.10
851;DHT22;412;51.400;7.480;2022-08-30T17:05:01;24.90;71.50
851;DHT22;412;51.400;7.480;2022-08-30T17:07:26;24.80;71.10
851;DHT22;412;51.400;7.480;2022-08-30T17:09:52;24.80;70.90
851;DHT22;412;51.400;7.480;2022-08-30T17:12:18;24.70;71.50
851;DHT22;412;51.400;7.480;2022-08-30T17:14:43;24.80;70.30
851;DHT22;412;51.400;7.480;2022-08-30T17:17:09;24.80;69.70
851;DHT22;412;51.400;7.480;2022-08-30T17:19:35;24.90;70.70
851;DHT22;412;51.400;7.480;2022-08-30T17:22:10;24.90;70.70
851;DHT22;412;51.400;7.480;2022-08-30T17:24:36;25.00;72.10
851;DHT22;412;51.400;7.480;2022-08-30T17:27:02;25.00;71.30
851;DHT22;412;51.400;7.480;2022-08-30T17:29:28;25.00;72.20
851;DHT22;412;51.400;7.480;2022-08-30T17:31:54;25.00;70.80
851;DHT22;412;51.400;7.480;2022-08-30T17:34:21;25.00;71.30
851;DHT22;412;51.400;7.480;2022-08-30T17:36:47;25.00;71.20
851;DHT22;412;51.400;7.480;2022-08-30T17:39:13;24.90;70.30
851;DHT22;412;51.400;7.480;2022-08-30T17:41:40;24.90;71.00
851;DHT22;412;51.400;7.480;2022-08-30T17:44:06;24.90;72.00
851;DHT22;412;51.400;7.480;2022-08-30T17:46:33;24.90;72.80
851;DHT22;412;51.400;7.480;2022-08-30T17:49:00;24.90;70.80
851;DHT22;412;51.400;7.480;2022-08-30T17:51:27;24.90;70.70
851;DHT22;412;51.400;7.480;2022-08-30T17:53:53;24.90;72.40
851;DHT22;412;51.400;7.480;2022-08-30T17:56:20;24.90;73.00
851;DHT22;412;51.400;7.480;2022-08-30T17:58:46;24.90;71.20
851;DHT22;412;51.400;7.480;2022-08-30T18:01:16;24.90;72.70
851;DHT22;412;51.400;7.480;2022-08-30T18:03:42;24.90;73.40
851;DHT22;412;51.400;7.480;2022-08-30T18:06:08;24.90;73.10
851;DHT22;412;51.400;7.480;2022-08-30T18:08:35;24.80;73.30
851;DHT22;412;51.400;7.480;2022-08-30T18:11:01;24.80;72.20
851;DHT22;412;51.400;7.480;2022-08-30T18:13:27;24.80;72.20
851;DHT22;412;51.400;7.480;2022-08-30T18:15:53;24.70;74.30
851;DHT22;412;51.400;7.480;2022-08-30T18:18:19;24.70;74.40
851;DHT22;412;51.400;7.480;2022-08-30T18:20:45;24.70;73.20
851;DHT22;412;51.400;7.480;2022-08-30T18:23:11;24.70;74.40
851;DHT22;412;51.400;7.480;2022-08-30T18:25:36;24.70;74.30
851;DHT22;412;51.400;7.480;2022-08-30T18:28:04;24.70;71.40